sensor_id;sensor_type;location;lat;lon;timestamp;pressure;altitude;pressure_sealevel;temperature;humidity
82621;BME280;72291;55.002;-1.592;2023-09-07T00:00:51;101323.64;;;16.75;61.45
82621;BME280;72291;55.002;-1.592;2023-09-07T00:03:17;101324.48;;;16.75;61.68
82621;BME280;72291;55.002;-1.592;2023-09-07T00:05:42;101322.35;;;17.05;59.85
82621;BME280;72291;55.002;-1.592;2023-09-07T00:08:08;101316.48;;;17.41;59.23
82621;BME280;72291;55.002;-1.592;2023-09-07T00:10:33;101316.91;;;16.99;58.55
82621;BME280;72291;55.002;-1.592;2023-09-07T00:12:59;101312.44;;;17.44;58.74
82621;BME280;72291;55.002;-1.592;2023-09-07T00:15:24;101304.83;;;19.30;53.98
82621;BME280;72291;55.002;-1.592;2023-09-07T00:17:50;101304.65;;;20.03;51.93
82621;BME280;72291;55.002;-1.592;2023-09-07T00:20:15;101308.99;;;19.56;52.68
82621;BME280;72291;55.002;-1.592;2023-09-07T00:22:41;101309.22;;;19.49;52.68
82621;BME280;72291;55.002;-1.592;2023-09-07T00:25:07;101306.72;;;19.06;53.12
82621;BME280;72291;55.002;-1.592;2023-09-07T00:27:33;101305.68;;;19.44;52.15
82621;BME280;72291;55.002;-1.592;2023-09-07T00:29:58;101319.09;;;16.26;61.09
82621;BME280;72291;55.002;-1.592;2023-09-07T00:32:24;101321.78;;;15.63;63.62
82621;BME280;72291;55.002;-1.592;2023-09-07T00:34:49;101313.12;;;15.71;64.14
82621;BME280;72291;55.002;-1.592;2023-09-07T00:37:15;101297.48;;;18.37;56.63
82621;BME280;72291;55.002;-1.592;2023-09-07T00:39:40;101289.19;;;18.96;54.04
82621;BME280;72291;55.002;-1.592;2023-09-07T00:42:05;101284.30;;;19.78;53.27
82621;BME280;72291;55.002;-1.592;2023-09-07T00:44:31;101288.13;;;18.00;57.08
82621;BME280;72291;55.002;-1.592;2023-09-07T00:47:01;101277.84;;;19.04;54.38
82621;BME280;72291;55.002;-1.592;2023-09-07T00:49:23;101275.04;;;19.39;52.89
82621;BME280;72291;55.002;-1.592;2023-09-07T00:51:48;101272.66;;;20.32;50.99
82621;BME280;72291;55.002;-1.592;2023-09-07T00:54:13;101274.39;;;20.77;50.12
82621;BME280;72291;55.002;-1.592;2023-09-07T00:56:38;101280.45;;;20.11;50.99
82621;BME280;72291;55.002;-1.592;2023-09-07T00:59:04;101291.05;;;17.33;58.36
82621;BME280;72291;55.002;-1.592;2023-09-07T01:01:30;101289.91;;;18.11;56.21
82621;BME280;72291;55.002;-1.592;2023-09-07T01:03:54;101284.45;;;20.33;51.10
82621;BME280;72291;55.002;-1.592;2023-09-07T01:06:22;101286.36;;;20.40;50.73
82621;BME280;72291;55.002;-1.592;2023-09-07T01:08:48;101284.91;;;20.97;50.11
82621;BME280;72291;55.002;-1.592;2023-09-07T01:11:14;101279.79;;;20.65;50.69
82621;BME280;72291;55.002;-1.592;2023-09-07T01:13:36;101278.13;;;20.47;50.30
82621;BME280;72291;55.002;-1.592;2023-09-07T01:16:02;101272.91;;;20.73;50.25
82621;BME280;72291;55.002;-1.592;2023-09-07T01:18:27;101263.89;;;20.60;50.11
82621;BME280;72291;55.002;-1.592;2023-09-07T01:20:53;101257.69;;;20.34;50.70
82621;BME280;72291;55.002;-1.592;2023-09-07T01:23:19;101258.74;;;19.98;51.46
82621;BME280;72291;55.002;-1.592;2023-09-07T01:25:44;101260.08;;;20.04;50.54
82621;BME280;72291;55.002;-1.592;2023-09-07T01:28:10;101260.65;;;20.69;49.82
82621;BME280;72291;55.002;-1.592;2023-09-07T01:30:36;101258.48;;;20.50;50.01
82621;BME280;72291;55.002;-1.592;2023-09-07T01:33:00;101264.83;;;19.98;50.61
82621;BME280;72291;55.002;-1.592;2023-09-07T01:35:26;101265.26;;;20.92;49.05
82621;BME280;72291;55.002;-1.592;2023-09-07T01:37:51;101266.24;;;20.25;50.18
82621;BME280;72291;55.002;-1.592;2023-09-07T01:40:17;101269.18;;;20.59;49.76
82621;BME280;72291;55.002;-1.592;2023-09-07T01:42:43;101267.97;;;21.52;48.44
82621;BME280;72291;55.002;-1.592;2023-09-07T01:45:08;101277.91;;;19.72;51.40
82621;BME280;72291;55.002;-1.592;2023-09-07T01:47:33;101280.72;;;20.18;51.09
82621;BME280;72291;55.002;-1.592;2023-09-07T01:49:58;101277.39;;;19.89;51.54
82621;BME280;72291;55.002;-1.592;2023-09-07T01:52:23;101273.11;;;20.95;50.24
82621;BME280;72291;55.002;-1.592;2023-09-07T01:54:49;101271.39;;;20.70;50.20
82621;BME280;72291;55.002;-1.592;2023-09-07T01:57:14;101274.20;;;20.52;50.58
82621;BME280;72291;55.002;-1.592;2023-09-07T01:59:39;101271.58;;;21.78;48.57
82621;BME280;72291;55.002;-1.592;2023-09-07T02:02:05;101270.77;;;21.31;49.41
82621;BME280;72291;55.002;-1.592;2023-09-07T02:04:30;101273.20;;;20.60;51.28
82621;BME280;72291;55.002;-1.592;2023-09-07T02:06:55;101277.68;;;21.05;50.41
82621;BME280;72291;55.002;-1.592;2023-09-07T02:09:21;101285.12;;;20.91;50.46
82621;BME280;72291;55.002;-1.592;2023-09-07T02:11:45;101286.59;;;19.39;53.39
82621;BME280;72291;55.002;-1.592;2023-09-07T02:14:11;101294.15;;;16.63;60.67
82621;BME280;72291;55.002;-1.592;2023-09-07T02:16:36;101294.02;;;17.88;58.85
82621;BME280;72291;55.002;-1.592;2023-09-07T02:19:04;101285.30;;;20.02;53.91
82621;BME280;72291;55.002;-1.592;2023-09-07T02:21:27;101280.62;;;19.68;53.56
82621;BME280;72291;55.002;-1.592;2023-09-07T02:23:53;101280.27;;;19.92;53.25
82621;BME280;72291;55.002;-1.592;2023-09-07T02:26:18;101285.53;;;20.43;52.10
82621;BME280;72291;55.002;-1.592;2023-09-07T02:28:44;101284.71;;;20.78;51.36
82621;BME280;72291;55.002;-1.592;2023-09-07T02:31:09;101283.44;;;20.12;52.58
82621;BME280;72291;55.002;-1.592;2023-09-07T02:33:34;101279.51;;;20.56;51.88
82621;BME280;72291;55.002;-1.592;2023-09-07T02:36:00;101268.87;;;21.09;51.01
82621;BME280;72291;55.002;-1.592;2023-09-07T02:38:25;101265.94;;;20.24;52.59
82621;BME280;72291;55.002;-1.592;2023-09-07T02:40:51;101262.41;;;21.07;50.81
82621;BME280;72291;55.002;-1.592;2023-09-07T02:43:16;101263.22;;;20.90;51.19
82621;BME280;72291;55.002;-1.592;2023-09-07T02:45:42;101255.91;;;21.73;49.79
82621;BME280;72291;55.002;-1.592;2023-09-07T02:48:07;101252.06;;;21.26;50.72
82621;BME280;72291;55.002;-1.592;2023-09-07T02:50:33;101243.11;;;20.11;52.00
82621;BME280;72291;55.002;-1.592;2023-09-07T02:52:58;101245.18;;;20.34;51.65
82621;BME280;72291;55.002;-1.592;2023-09-07T02:55:24;101241.00;;;20.04;51.89
82621;BME280;72291;55.002;-1.592;2023-09-07T02:57:49;101241.52;;;20.40;51.45
82621;BME280;72291;55.002;-1.592;2023-09-07T03:00:15;101241.19;;;20.15;52.54
82621;BME280;72291;55.002;-1.592;2023-09-07T03:02:40;101239.60;;;19.86;52.36
82621;BME280;72291;55.002;-1.592;2023-09-07T03:05:06;101244.41;;;20.46;51.88
82621;BME280;72291;55.002;-1.592;2023-09-07T03:07:33;101248.12;;;19.92;52.15
82621;BME280;72291;55.002;-1.592;2023-09-07T03:09:57;101246.47;;;20.64;50.82
82621;BME280;72291;55.002;-1.592;2023-09-07T03:12:26;101252.52;;;20.15;51.34
82621;BME280;72291;55.002;-1.592;2023-09-07T03:14:47;101251.04;;;21.36;49.21
82621;BME280;72291;55.002;-1.592;2023-09-07T03:17:12;101258.39;;;20.22;49.61
82621;BME280;72291;55.002;-1.592;2023-09-07T03:24:29;101272.87;;;19.51;52.06
82621;BME280;72291;55.002;-1.592;2023-09-07T03:26:55;101271.04;;;20.23;50.60
82621;BME280;72291;55.002;-1.592;2023-09-07T03:34:12;101265.38;;;20.08;50.47
82621;BME280;72291;55.002;-1.592;2023-09-07T03:36:36;101253.05;;;20.84;49.50
82621;BME280;72291;55.002;-1.592;2023-09-07T03:39:02;101251.53;;;21.27;48.95
82621;BME280;72291;55.002;-1.592;2023-09-07T03:41:28;101254.53;;;20.00;50.71
82621;BME280;72291;55.002;-1.592;2023-09-07T03:43:54;101252.44;;;19.79;51.42
82621;BME280;72291;55.002;-1.592;2023-09-07T03:46:19;101251.11;;;19.09;52.25
82621;BME280;72291;55.002;-1.592;2023-09-07T03:48:44;101255.29;;;19.49;51.35
82621;BME280;72291;55.002;-1.592;2023-09-07T03:51:09;101255.42;;;19.26;52.13
82621;BME280;72291;55.002;-1.592;2023-09-07T03:53:34;101247.44;;;19.38;51.77
82621;BME280;72291;55.002;-1.592;2023-09-07T03:56:02;101242.13;;;19.48;51.76
82621;BME280;72291;55.002;-1.592;2023-09-07T03:58:25;101248.23;;;19.50;51.68
82621;BME280;72291;55.002;-1.592;2023-09-07T04:00:50;101257.08;;;19.34;51.80
82621;BME280;72291;55.002;-1.592;2023-09-07T04:03:16;101262.45;;;20.25;49.93
82621;BME280;72291;55.002;-1.592;2023-09-07T04:05:41;101265.07;;;20.67;49.30
82621;BME280;72291;55.002;-1.592;2023-09-07T04:08:07;101265.53;;;19.26;51.27
82621;BME280;72291;55.002;-1.592;2023-09-07T04:10:32;101261.96;;;21.17;48.11
82621;BME280;72291;55.002;-1.592;2023-09-07T04:12:58;101264.38;;;20.29;49.48
82621;BME280;72291;55.002;-1.592;2023-09-07T04:15:23;101262.24;;;19.86;50.34
82621;BME280;72291;55.002;-1.592;2023-09-07T04:17:50;101249.44;;;20.88;49.20
82621;BME280;72291;55.002;-1.592;2023-09-07T04:20:14;101252.97;;;19.25;51.68
82621;BME280;72291;55.002;-1.592;2023-09-07T04:22:39;101270.00;;;19.54;52.18
82621;BME280;72291;55.002;-1.592;2023-09-07T04:25:05;101272.98;;;19.45;52.46
82621;BME280;72291;55.002;-1.592;2023-09-07T04:27:31;101265.37;;;18.13;56.17
82621;BME280;72291;55.002;-1.592;2023-09-07T04:29:55;101243.89;;;18.82;54.44
82621;BME280;72291;55.002;-1.592;2023-09-07T04:32:20;101251.74;;;18.79;53.60
82621;BME280;72291;55.002;-1.592;2023-09-07T04:34:46;101262.26;;;19.02;53.74
82621;BME280;72291;55.002;-1.592;2023-09-07T04:37:12;101267.09;;;19.18;52.83
82621;BME280;72291;55.002;-1.592;2023-09-07T04:39:37;101267.62;;;17.72;56.52
82621;BME280;72291;55.002;-1.592;2023-09-07T04:42:03;101264.12;;;18.01;55.84
82621;BME280;72291;55.002;-1.592;2023-09-07T04:44:28;101264.19;;;18.46;54.86
82621;BME280;72291;55.002;-1.592;2023-09-07T04:46:55;101263.75;;;18.10;55.02
82621;BME280;72291;55.002;-1.592;2023-09-07T04:49:19;101264.02;;;18.96;53.89
82621;BME280;72291;55.002;-1.592;2023-09-07T04:51:44;101264.93;;;18.78;53.33
82621;BME280;72291;55.002;-1.592;2023-09-07T04:54:09;101267.83;;;19.30;52.84
82621;BME280;72291;55.002;-1.592;2023-09-07T04:56:35;101270.79;;;19.56;51.79
82621;BME280;72291;55.002;-1.592;2023-09-07T04:59:00;101278.67;;;18.86;52.83
82621;BME280;72291;55.002;-1.592;2023-09-07T05:01:26;101276.79;;;19.36;51.73
82621;BME280;72291;55.002;-1.592;2023-09-07T05:03:51;101274.86;;;18.48;53.42
82621;BME280;72291;55.002;-1.592;2023-09-07T05:06:17;101279.35;;;18.81;52.84
82621;BME280;72291;55.002;-1.592;2023-09-07T05:08:42;101277.75;;;19.40;52.27
82621;BME280;72291;55.002;-1.592;2023-09-07T05:11:08;101274.59;;;18.67;53.78
82621;BME280;72291;55.002;-1.592;2023-09-07T05:13:34;101279.61;;;18.42;54.87
82621;BME280;72291;55.002;-1.592;2023-09-07T05:16:00;101283.63;;;17.15;58.15
82621;BME280;72291;55.002;-1.592;2023-09-07T05:18:24;101272.48;;;17.49;56.82
82621;BME280;72291;55.002;-1.592;2023-09-07T05:20:50;101265.21;;;18.68;54.49
82621;BME280;72291;55.002;-1.592;2023-09-07T05:23:16;101261.18;;;19.10;53.60
82621;BME280;72291;55.002;-1.592;2023-09-07T05:25:44;101271.44;;;18.68;54.17
82621;BME280;72291;55.002;-1.592;2023-09-07T05:28:06;101283.05;;;19.25;53.41
82621;BME280;72291;55.002;-1.592;2023-09-07T05:30:32;101285.74;;;18.86;53.58
82621;BME280;72291;55.002;-1.592;2023-09-07T05:32:58;101287.55;;;18.19;54.81
82621;BME280;72291;55.002;-1.592;2023-09-07T05:35:22;101292.71;;;18.17;56.05
82621;BME280;72291;55.002;-1.592;2023-09-07T05:37:47;101295.59;;;17.38;57.56
82621;BME280;72291;55.002;-1.592;2023-09-07T05:40:13;101295.67;;;17.49;56.92
82621;BME280;72291;55.002;-1.592;2023-09-07T05:42:38;101316.22;;;15.55;62.04
82621;BME280;72291;55.002;-1.592;2023-09-07T05:45:05;101318.34;;;16.32;60.85
82621;BME280;72291;55.002;-1.592;2023-09-07T05:47:30;101323.20;;;16.74;60.06
82621;BME280;72291;55.002;-1.592;2023-09-07T05:49:56;101313.82;;;17.61;57.81
82621;BME280;72291;55.002;-1.592;2023-09-07T05:52:21;101296.15;;;19.03;54.61
82621;BME280;72291;55.002;-1.592;2023-09-07T05:54:47;101287.89;;;18.79;54.31
82621;BME280;72291;55.002;-1.592;2023-09-07T05:57:12;101280.15;;;18.96;54.50
82621;BME280;72291;55.002;-1.592;2023-09-07T05:59:37;101281.81;;;19.33;53.48
82621;BME280;72291;55.002;-1.592;2023-09-07T06:02:03;101302.32;;;18.22;56.11
82621;BME280;72291;55.002;-1.592;2023-09-07T06:04:29;101327.59;;;17.19;59.22
82621;BME280;72291;55.002;-1.592;2023-09-07T06:06:54;101315.45;;;18.19;56.24
82621;BME280;72291;55.002;-1.592;2023-09-07T06:09:19;101311.09;;;19.27;53.93
82621;BME280;72291;55.002;-1.592;2023-09-07T06:11:45;101293.98;;;19.64;52.80
82621;BME280;72291;55.002;-1.592;2023-09-07T06:14:10;101288.84;;;19.37;53.60
82621;BME280;72291;55.002;-1.592;2023-09-07T06:16:36;101275.03;;;19.09;54.01
82621;BME280;72291;55.002;-1.592;2023-09-07T06:19:01;101264.67;;;18.31;55.98
82621;BME280;72291;55.002;-1.592;2023-09-07T06:21:27;101255.07;;;19.92;52.73
82621;BME280;72291;55.002;-1.592;2023-09-07T06:23:53;101237.52;;;19.82;52.68
82621;BME280;72291;55.002;-1.592;2023-09-07T06:26:18;101203.45;;;18.45;55.20
82621;BME280;72291;55.002;-1.592;2023-09-07T06:28:43;101184.90;;;17.96;56.28
82621;BME280;72291;55.002;-1.592;2023-09-07T06:31:09;101208.82;;;18.09;57.07
82621;BME280;72291;55.002;-1.592;2023-09-07T06:33:35;101235.21;;;17.93;56.77
82621;BME280;72291;55.002;-1.592;2023-09-07T06:36:00;101254.97;;;18.11;57.13
82621;BME280;72291;55.002;-1.592;2023-09-07T06:38:25;101258.13;;;18.13;57.89
82621;BME280;72291;55.002;-1.592;2023-09-07T06:40:50;101249.29;;;19.00;54.95
82621;BME280;72291;55.002;-1.592;2023-09-07T06:43:16;101248.30;;;20.42;52.22
82621;BME280;72291;55.002;-1.592;2023-09-07T06:45:41;101241.96;;;21.13;50.99
82621;BME280;72291;55.002;-1.592;2023-09-07T06:48:07;101232.11;;;20.21;53.06
82621;BME280;72291;55.002;-1.592;2023-09-07T06:50:32;101222.63;;;19.97;53.66
82621;BME280;72291;55.002;-1.592;2023-09-07T06:52:58;101214.57;;;20.14;53.65
82621;BME280;72291;55.002;-1.592;2023-09-07T06:55:23;101206.39;;;19.37;55.33
82621;BME280;72291;55.002;-1.592;2023-09-07T06:57:48;101194.71;;;18.45;57.29
82621;BME280;72291;55.002;-1.592;2023-09-07T07:00:14;101190.03;;;18.82;56.34
82621;BME280;72291;55.002;-1.592;2023-09-07T07:02:39;101197.57;;;17.95;58.01
82621;BME280;72291;55.002;-1.592;2023-09-07T07:05:06;101207.88;;;17.96;56.93
82621;BME280;72291;55.002;-1.592;2023-09-07T07:07:39;101218.17;;;19.31;54.52
82621;BME280;72291;55.002;-1.592;2023-09-07T07:10:01;101231.84;;;18.91;55.27
82621;BME280;72291;55.002;-1.592;2023-09-07T07:12:32;101243.61;;;19.09;56.80
82621;BME280;72291;55.002;-1.592;2023-09-07T07:14:47;101260.09;;;17.45;58.80
82621;BME280;72291;55.002;-1.592;2023-09-07T07:17:12;101273.62;;;19.54;55.01
82621;BME280;72291;55.002;-1.592;2023-09-07T07:22:03;101291.24;;;18.84;55.79
82621;BME280;72291;55.002;-1.592;2023-09-07T07:29:19;101310.09;;;18.87;54.50
82621;BME280;72291;55.002;-1.592;2023-09-07T07:34:10;101309.39;;;19.99;53.36
82621;BME280;72291;55.002;-1.592;2023-09-07T07:36:35;101324.70;;;18.90;55.92
82621;BME280;72291;55.002;-1.592;2023-09-07T07:39:02;101330.75;;;18.97;57.05
82621;BME280;72291;55.002;-1.592;2023-09-07T07:41:26;101329.94;;;18.49;57.42
82621;BME280;72291;55.002;-1.592;2023-09-07T07:43:51;101328.19;;;18.92;56.72
82621;BME280;72291;55.002;-1.592;2023-09-07T07:46:17;101328.26;;;18.49;57.21
82621;BME280;72291;55.002;-1.592;2023-09-07T07:48:42;101329.09;;;18.27;58.14
82621;BME280;72291;55.002;-1.592;2023-09-07T07:51:07;101323.13;;;20.25;53.99
82621;BME280;72291;55.002;-1.592;2023-09-07T07:53:33;101317.87;;;19.99;55.23
82621;BME280;72291;55.002;-1.592;2023-09-07T07:55:59;101312.44;;;19.60;56.17
82621;BME280;72291;55.002;-1.592;2023-09-07T07:58:24;101312.68;;;20.95;53.03
82621;BME280;72291;55.002;-1.592;2023-09-07T08:00:49;101310.01;;;19.69;54.73
82621;BME280;72291;55.002;-1.592;2023-09-07T08:03:15;101316.15;;;19.21;55.84
82621;BME280;72291;55.002;-1.592;2023-09-07T08:05:40;101314.41;;;19.31;55.61
82621;BME280;72291;55.002;-1.592;2023-09-07T08:08:06;101330.78;;;19.34;55.61
82621;BME280;72291;55.002;-1.592;2023-09-07T08:10:33;101337.83;;;19.15;55.78
82621;BME280;72291;55.002;-1.592;2023-09-07T08:12:57;101343.07;;;18.59;57.25
82621;BME280;72291;55.002;-1.592;2023-09-07T08:15:22;101343.45;;;19.26;55.33
82621;BME280;72291;55.002;-1.592;2023-09-07T08:17:48;101340.25;;;19.57;54.90
82621;BME280;72291;55.002;-1.592;2023-09-07T08:20:13;101344.55;;;19.76;54.37
82621;BME280;72291;55.002;-1.592;2023-09-07T08:22:39;101354.19;;;19.79;54.00
82621;BME280;72291;55.002;-1.592;2023-09-07T08:25:05;101352.96;;;19.38;55.77
82621;BME280;72291;55.002;-1.592;2023-09-07T08:27:29;101343.77;;;20.36;53.79
82621;BME280;72291;55.002;-1.592;2023-09-07T08:29:56;101336.67;;;20.76;52.29
82621;BME280;72291;55.002;-1.592;2023-09-07T08:32:21;101344.70;;;19.87;53.61
82621;BME280;72291;55.002;-1.592;2023-09-07T08:34:51;101344.07;;;19.76;54.15
82621;BME280;72291;55.002;-1.592;2023-09-07T08:37:12;101327.92;;;19.88;54.00
82621;BME280;72291;55.002;-1.592;2023-09-07T08:39:38;101325.22;;;19.25;54.34
82621;BME280;72291;55.002;-1.592;2023-09-07T08:42:04;101304.76;;;22.19;49.39
82621;BME280;72291;55.002;-1.592;2023-09-07T08:44:29;101313.03;;;20.91;51.37
82621;BME280;72291;55.002;-1.592;2023-09-07T08:46:55;101322.91;;;22.35;49.58
82621;BME280;72291;55.002;-1.592;2023-09-07T08:49:20;101328.79;;;21.56;50.72
82621;BME280;72291;55.002;-1.592;2023-09-07T08:51:45;101309.64;;;20.21;53.10
82621;BME280;72291;55.002;-1.592;2023-09-07T08:54:12;101302.55;;;20.08;52.89
82621;BME280;72291;55.002;-1.592;2023-09-07T08:56:37;101321.10;;;20.92;52.43
82621;BME280;72291;55.002;-1.592;2023-09-07T08:59:02;101304.86;;;20.67;52.93
82621;BME280;72291;55.002;-1.592;2023-09-07T09:01:27;101294.00;;;20.37;53.27
82621;BME280;72291;55.002;-1.592;2023-09-07T09:03:52;101286.30;;;20.45;53.14
82621;BME280;72291;55.002;-1.592;2023-09-07T09:06:19;101289.21;;;20.32;52.07
82621;BME280;72291;55.002;-1.592;2023-09-07T09:08:43;101299.45;;;20.03;52.69
82621;BME280;72291;55.002;-1.592;2023-09-07T09:11:08;101303.11;;;20.69;51.51
82621;BME280;72291;55.002;-1.592;2023-09-07T09:13:33;101294.21;;;22.62;47.85
82621;BME280;72291;55.002;-1.592;2023-09-07T09:15:59;101301.98;;;20.34;52.21
82621;BME280;72291;55.002;-1.592;2023-09-07T09:18:25;101295.12;;;20.74;51.87
82621;BME280;72291;55.002;-1.592;2023-09-07T09:20:50;101281.42;;;21.51;51.04
82621;BME280;72291;55.002;-1.592;2023-09-07T09:23:15;101268.37;;;20.50;52.76
82621;BME280;72291;55.002;-1.592;2023-09-07T09:25:41;101268.89;;;19.99;53.56
82621;BME280;72291;55.002;-1.592;2023-09-07T09:28:09;101270.67;;;19.99;53.17
82621;BME280;72291;55.002;-1.592;2023-09-07T09:30:32;101267.98;;;21.03;51.85
82621;BME280;72291;55.002;-1.592;2023-09-07T09:32:58;101258.59;;;20.27;52.65
82621;BME280;72291;55.002;-1.592;2023-09-07T09:35:23;101253.30;;;20.79;52.31
82621;BME280;72291;55.002;-1.592;2023-09-07T09:37:48;101250.97;;;19.93;53.78
82621;BME280;72291;55.002;-1.592;2023-09-07T09:40:14;101246.89;;;21.45;50.63
82621;BME280;72291;55.002;-1.592;2023-09-07T09:42:40;101267.58;;;20.92;52.05
82621;BME280;72291;55.002;-1.592;2023-09-07T09:45:06;101269.38;;;21.40;51.11
82621;BME280;72291;55.002;-1.592;2023-09-07T09:47:31;101265.08;;;21.60;50.68
82621;BME280;72291;55.002;-1.592;2023-09-07T09:49:55;101272.59;;;21.87;50.54
82621;BME280;72291;55.002;-1.592;2023-09-07T09:52:21;101289.63;;;21.12;51.99
82621;BME280;72291;55.002;-1.592;2023-09-07T09:54:46;101294.21;;;21.72;50.47
82621;BME280;72291;55.002;-1.592;2023-09-07T09:57:11;101299.97;;;21.18;51.69
82621;BME280;72291;55.002;-1.592;2023-09-07T09:59:38;101299.82;;;21.61;50.30
82621;BME280;72291;55.002;-1.592;2023-09-07T10:02:02;101300.62;;;21.70;50.90
82621;BME280;72291;55.002;-1.592;2023-09-07T10:04:27;101299.42;;;22.79;48.68
82621;BME280;72291;55.002;-1.592;2023-09-07T10:06:55;101310.54;;;22.16;49.70
82621;BME280;72291;55.002;-1.592;2023-09-07T10:09:17;101312.08;;;22.26;50.14
82621;BME280;72291;55.002;-1.592;2023-09-07T10:11:42;101312.57;;;21.53;50.75
82621;BME280;72291;55.002;-1.592;2023-09-07T10:14:08;101305.48;;;22.32;49.94
82621;BME280;72291;55.002;-1.592;2023-09-07T10:16:42;101301.94;;;23.43;47.94
82621;BME280;72291;55.002;-1.592;2023-09-07T10:18:59;101309.01;;;22.79;48.43
82621;BME280;72291;55.002;-1.592;2023-09-07T10:21:25;101315.17;;;23.08;48.33
82621;BME280;72291;55.002;-1.592;2023-09-07T10:23:51;101315.26;;;22.90;48.46
82621;BME280;72291;55.002;-1.592;2023-09-07T10:26:17;101305.76;;;22.50;48.62
82621;BME280;72291;55.002;-1.592;2023-09-07T10:28:41;101291.84;;;22.71;48.68
82621;BME280;72291;55.002;-1.592;2023-09-07T10:31:07;101286.31;;;22.05;50.27
82621;BME280;72291;55.002;-1.592;2023-09-07T10:33:32;101278.09;;;21.98;49.37
82621;BME280;72291;55.002;-1.592;2023-09-07T10:35:58;101266.83;;;22.58;48.62
82621;BME280;72291;55.002;-1.592;2023-09-07T10:38:23;101264.16;;;23.21;47.68
82621;BME280;72291;55.002;-1.592;2023-09-07T10:40:48;101275.21;;;22.73;49.23
82621;BME280;72291;55.002;-1.592;2023-09-07T10:43:13;101284.89;;;21.93;50.16
82621;BME280;72291;55.002;-1.592;2023-09-07T10:45:38;101288.52;;;21.94;50.97
82621;BME280;72291;55.002;-1.592;2023-09-07T10:48:04;101275.21;;;22.30;50.06
82621;BME280;72291;55.002;-1.592;2023-09-07T10:50:43;101272.88;;;22.70;49.21
82621;BME280;72291;55.002;-1.592;2023-09-07T10:52:55;101270.21;;;22.16;51.21
82621;BME280;72291;55.002;-1.592;2023-09-07T10:55:20;101255.45;;;22.87;49.49
82621;BME280;72291;55.002;-1.592;2023-09-07T10:57:46;101249.29;;;23.81;48.01
82621;BME280;72291;55.002;-1.592;2023-09-07T11:00:13;101242.67;;;24.04;46.38
82621;BME280;72291;55.002;-1.592;2023-09-07T11:02:36;101238.71;;;24.83;44.55
82621;BME280;72291;55.002;-1.592;2023-09-07T11:05:01;101253.40;;;26.18;42.73
82621;BME280;72291;55.002;-1.592;2023-09-07T11:07:27;101260.39;;;27.03;41.92
82621;BME280;72291;55.002;-1.592;2023-09-07T11:09:52;101262.86;;;27.49;40.68
82621;BME280;72291;55.002;-1.592;2023-09-07T11:12:22;101276.64;;;26.94;41.74
82621;BME280;72291;55.002;-1.592;2023-09-07T11:14:42;101276.93;;;27.90;40.31
82621;BME280;72291;55.002;-1.592;2023-09-07T11:26:57;101239.76;;;26.12;40.65
82621;BME280;72291;55.002;-1.592;2023-09-07T11:41:02;101238.50;;;25.58;42.57
82621;BME280;72291;55.002;-1.592;2023-09-07T11:45:53;101222.85;;;27.94;39.03
82621;BME280;72291;55.002;-1.592;2023-09-07T11:48:19;101221.82;;;27.64;39.29
82621;BME280;72291;55.002;-1.592;2023-09-07T11:50:44;101222.86;;;26.89;40.57
82621;BME280;72291;55.002;-1.592;2023-09-07T11:53:10;101219.65;;;27.04;40.31
82621;BME280;72291;55.002;-1.592;2023-09-07T11:55:35;101223.74;;;25.45;43.63
82621;BME280;72291;55.002;-1.592;2023-09-07T11:58:00;101230.42;;;25.54;43.30
82621;BME280;72291;55.002;-1.592;2023-09-07T12:00:26;101223.86;;;27.08;41.02
82621;BME280;72291;55.002;-1.592;2023-09-07T12:02:51;101224.06;;;25.40;43.46
82621;BME280;72291;55.002;-1.592;2023-09-07T12:05:22;101213.67;;;26.53;41.25
82621;BME280;72291;55.002;-1.592;2023-09-07T12:07:42;101214.91;;;27.31;40.44
82621;BME280;72291;55.002;-1.592;2023-09-07T12:10:07;101220.53;;;25.92;42.36
82621;BME280;72291;55.002;-1.592;2023-09-07T12:12:33;101220.45;;;25.95;42.15
82621;BME280;72291;55.002;-1.592;2023-09-07T12:14:58;101217.92;;;25.31;43.50
82621;BME280;72291;55.002;-1.592;2023-09-07T12:17:24;101210.64;;;26.73;41.74
82621;BME280;72291;55.002;-1.592;2023-09-07T12:19:50;101212.58;;;25.45;42.82
82621;BME280;72291;55.002;-1.592;2023-09-07T12:22:14;101212.11;;;26.34;42.12
82621;BME280;72291;55.002;-1.592;2023-09-07T12:24:39;101216.78;;;24.58;44.28
82621;BME280;72291;55.002;-1.592;2023-09-07T12:27:04;101213.87;;;23.77;45.15
82621;BME280;72291;55.002;-1.592;2023-09-07T12:29:30;101207.97;;;25.89;42.41
82621;BME280;72291;55.002;-1.592;2023-09-07T12:31:54;101211.34;;;25.51;42.55
82621;BME280;72291;55.002;-1.592;2023-09-07T12:34:20;101216.52;;;25.34;43.40
82621;BME280;72291;55.002;-1.592;2023-09-07T12:36:46;101217.45;;;24.24;45.40
82621;BME280;72291;55.002;-1.592;2023-09-07T12:39:11;101217.57;;;23.82;45.93
82621;BME280;72291;55.002;-1.592;2023-09-07T12:41:37;101212.15;;;25.62;42.89
82621;BME280;72291;55.002;-1.592;2023-09-07T12:44:02;101206.55;;;25.87;42.78
82621;BME280;72291;55.002;-1.592;2023-09-07T12:46:28;101204.60;;;25.03;43.88
82621;BME280;72291;55.002;-1.592;2023-09-07T12:48:52;101201.71;;;25.39;42.85
82621;BME280;72291;55.002;-1.592;2023-09-07T12:51:18;101199.36;;;25.80;42.76
82621;BME280;72291;55.002;-1.592;2023-09-07T12:53:44;101203.19;;;25.07;44.61
82621;BME280;72291;55.002;-1.592;2023-09-07T12:56:09;101205.47;;;24.41;44.88
82621;BME280;72291;55.002;-1.592;2023-09-07T12:58:34;101208.33;;;24.38;45.28
82621;BME280;72291;55.002;-1.592;2023-09-07T13:00:59;101211.84;;;23.33;47.26
82621;BME280;72291;55.002;-1.592;2023-09-07T13:03:25;101213.94;;;23.78;46.48
82621;BME280;72291;55.002;-1.592;2023-09-07T13:05:50;101217.74;;;23.93;46.23
82621;BME280;72291;55.002;-1.592;2023-09-07T13:08:19;101217.77;;;22.97;47.26
82621;BME280;72291;55.002;-1.592;2023-09-07T13:10:40;101222.06;;;23.06;46.61
82621;BME280;72291;55.002;-1.592;2023-09-07T13:13:06;101223.66;;;24.90;43.73